sensor_id;sensor_type;location;lat;lon;timestamp;P1;durP1;ratioP1;P2;durP2;ratioP2
16770;SDS011;8503;52.472;13.344;2024-01-11T00:00:16;12.38;;;5.18;;
16770;SDS011;8503;52.472;13.344;2024-01-11T00:01:00;7.95;;;4.03;;
16770;SDS011;8503;52.472;13.344;2024-01-11T00:01:44;9.88;;;5.68;;
16770;SDS011;8503;52.472;13.344;2024-01-11T00:02:27;13.15;;;6.20;;
16770;SDS011;8503;52.472;13.344;2024-01-11T00:03:12;8.88;;;5.10;;
16770;SDS011;8503;52.472;13.344;2024-01-11T00:03:55;13.43;;;5.45;;
16770;SDS011;8503;52.472;13.344;2024-01-11T00:04:38;8.50;;;5.75;;
16770;SDS011;8503;52.472;13.344;2024-01-11T00:05:24;12.07;;;5.53;;
16770;SDS011;8503;52.472;13.344;2024-01-11T00:06:06;11.13;;;5.43;;
16770;SDS011;8503;52.472;13.344;2024-01-11T00:06:49;11.85;;;5.93;;
16770;SDS011;8503;52.472;13.344;2024-01-11T00:07:33;14.02;;;5.95;;
16770;SDS011;8503;52.472;13.344;2024-01-11T00:08:16;9.63;;;5.75;;
16770;SDS011;8503;52.472;13.344;2024-01-11T00:09:00;10.30;;;6.63;;
16770;SDS011;8503;52.472;13.344;2024-01-11T00:09:43;10.88;;;5.78;;
16770;SDS011;8503;52.472;13.344;2024-01-11T00:10:25;9.38;;;5.95;;
16770;SDS011;8503;52.472;13.344;2024-01-11T00:11:08;12.77;;;5.85;;
16770;SDS011;8503;52.472;13.344;2024-01-11T00:11:51;9.43;;;5.43;;
16770;SDS011;8503;52.472;13.344;2024-01-11T00:12:40;8.25;;;3.92;;
16770;SDS011;8503;52.472;13.344;2024-01-11T00:13:22;7.95;;;5.07;;
16770;SDS011;8503;52.472;13.344;2024-01-11T00:14:06;10.57;;;6.30;;
16770;SDS011;8503;52.472;13.344;2024-01-11T00:14:49;11.32;;;5.22;;
16770;SDS011;8503;52.472;13.344;2024-01-11T00:15:31;9.27;;;5.60;;
16770;SDS011;8503;52.472;13.344;2024-01-11T00:16:14;11.07;;;6.15;;
16770;SDS011;8503;52.472;13.344;2024-01-11T00:16:57;9.98;;;5.45;;
16770;SDS011;8503;52.472;13.344;2024-01-11T00:17:40;8.77;;;4.25;;
16770;SDS011;8503;52.472;13.344;2024-01-11T00:18:25;6.93;;;4.47;;
16770;SDS011;8503;52.472;13.344;2024-01-11T00:19:08;11.10;;;4.35;;
16770;SDS011;8503;52.472;13.344;2024-01-11T00:19:51;11.65;;;5.13;;
16770;SDS011;8503;52.472;13.344;2024-01-11T00:20:34;12.65;;;5.65;;
16770;SDS011;8503;52.472;13.344;2024-01-11T00:21:17;9.27;;;4.55;;
16770;SDS011;8503;52.472;13.344;2024-01-11T00:21:59;9.35;;;4.85;;
16770;SDS011;8503;52.472;13.344;2024-01-11T00:22:43;7.40;;;4.18;;
16770;SDS011;8503;52.472;13.344;2024-01-11T00:23:26;6.95;;;4.43;;
16770;SDS011;8503;52.472;13.344;2024-01-11T00:24:08;9.60;;;4.78;;
16770;SDS011;8503;52.472;13.344;2024-01-11T00:24:52;9.60;;;5.55;;
16770;SDS011;8503;52.472;13.344;2024-01-11T00:25:34;8.00;;;4.03;;
16770;SDS011;8503;52.472;13.344;2024-01-11T00:26:17;9.15;;;4.72;;
16770;SDS011;8503;52.472;13.344;2024-01-11T00:27:00;8.88;;;4.70;;
16770;SDS011;8503;52.472;13.344;2024-01-11T00:27:43;9.38;;;5.07;;
16770;SDS011;8503;52.472;13.344;2024-01-11T00:28:25;6.85;;;4.07;;
16770;SDS011;8503;52.472;13.344;2024-01-11T00:29:09;7.22;;;4.97;;
16770;SDS011;8503;52.472;13.344;2024-01-11T00:29:52;9.48;;;4.65;;
16770;SDS011;8503;52.472;13.344;2024-01-11T00:30:35;9.38;;;5.95;;
16770;SDS011;8503;52.472;13.344;2024-01-11T00:31:18;8.82;;;4.20;;
16770;SDS011;8503;52.472;13.344;2024-01-11T00:32:01;11.02;;;4.38;;
16770;SDS011;8503;52.472;13.344;2024-01-11T00:32:43;10.50;;;5.22;;
16770;SDS011;8503;52.472;13.344;2024-01-11T00:33:29;6.90;;;3.67;;
16770;SDS011;8503;52.472;13.344;2024-01-11T00:34:13;8.52;;;4.72;;
16770;SDS011;8503;52.472;13.344;2024-01-11T00:34:55;7.82;;;4.78;;
16770;SDS011;8503;52.472;13.344;2024-01-11T00:35:38;9.30;;;4.38;;
16770;SDS011;8503;52.472;13.344;2024-01-11T00:36:21;9.48;;;4.57;;
16770;SDS011;8503;52.472;13.344;2024-01-11T00:37:04;10.35;;;4.22;;
16770;SDS011;8503;52.472;13.344;2024-01-11T00:37:47;7.22;;;2.97;;
16770;SDS011;8503;52.472;13.344;2024-01-11T00:38:30;12.00;;;4.63;;
16770;SDS011;8503;52.472;13.344;2024-01-11T00:39:13;8.43;;;4.13;;
16770;SDS011;8503;52.472;13.344;2024-01-11T00:39:55;7.72;;;4.13;;
16770;SDS011;8503;52.472;13.344;2024-01-11T00:40:38;8.23;;;4.03;;
16770;SDS011;8503;52.472;13.344;2024-01-11T00:41:21;6.03;;;3.55;;
16770;SDS011;8503;52.472;13.344;2024-01-11T00:42:04;6.03;;;4.00;;
16770;SDS011;8503;52.472;13.344;2024-01-11T00:42:47;8.18;;;3.95;;
16770;SDS011;8503;52.472;13.344;2024-01-11T00:43:30;5.25;;;3.38;;
16770;SDS011;8503;52.472;13.344;2024-01-11T00:44:13;7.07;;;3.10;;
16770;SDS011;8503;52.472;13.344;2024-01-11T00:44:55;6.57;;;3.40;;
16770;SDS011;8503;52.472;13.344;2024-01-11T00:45:39;7.72;;;3.45;;
16770;SDS011;8503;52.472;13.344;2024-01-11T00:46:21;6.97;;;3.28;;
16770;SDS011;8503;52.472;13.344;2024-01-11T00:47:04;8.05;;;3.55;;
16770;SDS011;8503;52.472;13.344;2024-01-11T00:47:46;7.47;;;3.30;;
16770;SDS011;8503;52.472;13.344;2024-01-11T00:48:31;7.10;;;3.65;;
16770;SDS011;8503;52.472;13.344;2024-01-11T00:49:14;6.15;;;3.45;;
16770;SDS011;8503;52.472;13.344;2024-01-11T00:49:57;4.88;;;3.13;;
16770;SDS011;8503;52.472;13.344;2024-01-11T00:50:40;4.85;;;2.65;;
16770;SDS011;8503;52.472;13.344;2024-01-11T00:51:23;10.07;;;5.00;;
16770;SDS011;8503;52.472;13.344;2024-01-11T00:52:06;4.20;;;2.70;;
16770;SDS011;8503;52.472;13.344;2024-01-11T00:52:49;6.95;;;3.65;;
16770;SDS011;8503;52.472;13.344;2024-01-11T00:53:32;7.18;;;3.15;;
16770;SDS011;8503;52.472;13.344;2024-01-11T00:54:15;6.63;;;3.28;;
16770;SDS011;8503;52.472;13.344;2024-01-11T00:54:58;6.63;;;3.13;;
16770;SDS011;8503;52.472;13.344;2024-01-11T00:55:41;6.18;;;3.70;;
16770;SDS011;8503;52.472;13.344;2024-01-11T00:56:23;6.53;;;3.47;;
16770;SDS011;8503;52.472;13.344;2024-01-11T00:57:07;8.35;;;3.75;;
16770;SDS011;8503;52.472;13.344;2024-01-11T00:57:49;7.75;;;4.55;;
16770;SDS011;8503;52.472;13.344;2024-01-11T00:58:32;5.50;;;2.83;;
16770;SDS011;8503;52.472;13.344;2024-01-11T00:59:16;5.75;;;3.55;;
16770;SDS011;8503;52.472;13.344;2024-01-11T00:59:59;6.38;;;4.22;;
16770;SDS011;8503;52.472;13.344;2024-01-11T01:00:41;7.43;;;4.28;;
16770;SDS011;8503;52.472;13.344;2024-01-11T01:01:24;7.20;;;3.95;;
16770;SDS011;8503;52.472;13.344;2024-01-11T01:02:07;6.97;;;3.63;;
16770;SDS011;8503;52.472;13.344;2024-01-11T01:02:50;6.65;;;3.78;;
16770;SDS011;8503;52.472;13.344;2024-01-11T01:03:34;12.25;;;5.38;;
16770;SDS011;8503;52.472;13.344;2024-01-11T01:04:18;7.15;;;3.25;;
16770;SDS011;8503;52.472;13.344;2024-01-11T01:05:00;6.90;;;3.97;;
16770;SDS011;8503;52.472;13.344;2024-01-11T01:05:44;8.07;;;3.80;;
16770;SDS011;8503;52.472;13.344;2024-01-11T01:06:27;6.57;;;3.00;;
16770;SDS011;8503;52.472;13.344;2024-01-11T01:07:10;6.68;;;3.33;;
16770;SDS011;8503;52.472;13.344;2024-01-11T01:07:52;6.07;;;2.95;;
16770;SDS011;8503;52.472;13.344;2024-01-11T01:08:36;4.60;;;2.30;;
16770;SDS011;8503;52.472;13.344;2024-01-11T01:09:18;7.32;;;3.00;;
16770;SDS011;8503;52.472;13.344;2024-01-11T01:10:01;9.13;;;3.45;;
16770;SDS011;8503;52.472;13.344;2024-01-11T01:10:45;4.93;;;2.95;;
16770;SDS011;8503;52.472;13.344;2024-01-11T01:11:27;4.65;;;2.42;;
16770;SDS011;8503;52.472;13.344;2024-01-11T01:12:10;2.50;;;1.75;;
16770;SDS011;8503;52.472;13.344;2024-01-11T01:12:53;5.10;;;2.33;;
16770;SDS011;8503;52.472;13.344;2024-01-11T01:13:36;4.72;;;2.63;;
16770;SDS011;8503;52.472;13.344;2024-01-11T01:14:18;4.30;;;2.90;;
16770;SDS011;8503;52.472;13.344;2024-01-11T01:15:02;5.68;;;3.85;;
16770;SDS011;8503;52.472;13.344;2024-01-11T01:15:45;5.25;;;2.70;;
16770;SDS011;8503;52.472;13.344;2024-01-11T01:16:27;6.57;;;3.10;;
16770;SDS011;8503;52.472;13.344;2024-01-11T01:17:11;4.30;;;2.92;;
16770;SDS011;8503;52.472;13.344;2024-01-11T01:17:57;6.85;;;3.83;;
16770;SDS011;8503;52.472;13.344;2024-01-11T01:18:41;6.25;;;3.08;;
16770;SDS011;8503;52.472;13.344;2024-01-11T01:19:25;5.88;;;3.13;;
16770;SDS011;8503;52.472;13.344;2024-01-11T01:20:08;5.38;;;3.33;;
16770;SDS011;8503;52.472;13.344;2024-01-11T01:20:51;3.80;;;2.25;;
16770;SDS011;8503;52.472;13.344;2024-01-11T01:21:34;5.10;;;3.13;;
16770;SDS011;8503;52.472;13.344;2024-01-11T01:22:17;4.53;;;2.50;;
16770;SDS011;8503;52.472;13.344;2024-01-11T01:23:00;6.57;;;3.17;;
16770;SDS011;8503;52.472;13.344;2024-01-11T01:23:44;5.95;;;3.95;;
16770;SDS011;8503;52.472;13.344;2024-01-11T01:24:26;6.78;;;3.47;;
16770;SDS011;8503;52.472;13.344;2024-01-11T01:25:09;6.53;;;3.10;;
16770;SDS011;8503;52.472;13.344;2024-01-11T01:25:52;6.03;;;3.45;;
16770;SDS011;8503;52.472;13.344;2024-01-11T01:26:35;5.68;;;3.88;;
16770;SDS011;8503;52.472;13.344;2024-01-11T01:27:18;4.78;;;3.30;;
16770;SDS011;8503;52.472;13.344;2024-01-11T01:28:01;8.05;;;4.82;;
16770;SDS011;8503;52.472;13.344;2024-01-11T01:28:44;6.57;;;3.58;;
16770;SDS011;8503;52.472;13.344;2024-01-11T01:29:27;6.80;;;4.25;;
16770;SDS011;8503;52.472;13.344;2024-01-11T01:30:10;8.57;;;5.05;;
16770;SDS011;8503;52.472;13.344;2024-01-11T01:30:53;5.07;;;3.58;;
16770;SDS011;8503;52.472;13.344;2024-01-11T01:31:36;10.40;;;4.68;;
16770;SDS011;8503;52.472;13.344;2024-01-11T01:32:20;5.95;;;3.47;;
16770;SDS011;8503;52.472;13.344;2024-01-11T01:33:03;7.88;;;3.55;;
16770;SDS011;8503;52.472;13.344;2024-01-11T01:33:47;5.53;;;3.17;;
16770;SDS011;8503;52.472;13.344;2024-01-11T01:34:32;10.93;;;4.18;;
16770;SDS011;8503;52.472;13.344;2024-01-11T01:35:15;5.38;;;3.45;;
16770;SDS011;8503;52.472;13.344;2024-01-11T01:35:57;7.88;;;3.78;;
16770;SDS011;8503;52.472;13.344;2024-01-11T01:36:41;5.72;;;3.30;;
16770;SDS011;8503;52.472;13.344;2024-01-11T01:37:23;8.35;;;3.65;;
16770;SDS011;8503;52.472;13.344;2024-01-11T01:38:06;8.10;;;3.78;;
16770;SDS011;8503;52.472;13.344;2024-01-11T01:38:49;6.38;;;3.90;;
16770;SDS011;8503;52.472;13.344;2024-01-11T01:39:32;7.93;;;4.18;;
16770;SDS011;8503;52.472;13.344;2024-01-11T01:40:19;8.63;;;3.78;;
16770;SDS011;8503;52.472;13.344;2024-01-11T01:41:01;8.20;;;4.35;;
16770;SDS011;8503;52.472;13.344;2024-01-11T01:41:44;8.50;;;4.32;;
16770;SDS011;8503;52.472;13.344;2024-01-11T01:42:28;7.82;;;4.47;;
16770;SDS011;8503;52.472;13.344;2024-01-11T01:43:10;6.82;;;4.40;;
16770;SDS011;8503;52.472;13.344;2024-01-11T01:43:54;9.50;;;4.43;;
16770;SDS011;8503;52.472;13.344;2024-01-11T01:44:37;9.75;;;4.65;;
16770;SDS011;8503;52.472;13.344;2024-01-11T01:45:22;10.02;;;4.07;;
16770;SDS011;8503;52.472;13.344;2024-01-11T01:46:04;8.55;;;4.00;;
16770;SDS011;8503;52.472;13.344;2024-01-11T01:46:48;8.13;;;4.20;;
16770;SDS011;8503;52.472;13.344;2024-01-11T01:47:32;8.85;;;3.97;;
16770;SDS011;8503;52.472;13.344;2024-01-11T01:48:15;5.07;;;3.45;;
16770;SDS011;8503;52.472;13.344;2024-01-11T01:49:00;10.68;;;4.50;;
16770;SDS011;8503;52.472;13.344;2024-01-11T01:49:43;6.35;;;3.53;;
16770;SDS011;8503;52.472;13.344;2024-01-11T01:50:25;8.90;;;4.35;;
16770;SDS011;8503;52.472;13.344;2024-01-11T01:51:09;6.65;;;3.45;;
16770;SDS011;8503;52.472;13.344;2024-01-11T01:51:52;8.98;;;4.35;;
16770;SDS011;8503;52.472;13.344;2024-01-11T01:52:35;11.13;;;4.65;;
16770;SDS011;8503;52.472;13.344;2024-01-11T01:53:21;5.97;;;3.05;;
16770;SDS011;8503;52.472;13.344;2024-01-11T01:54:04;10.00;;;3.78;;
16770;SDS011;8503;52.472;13.344;2024-01-11T01:54:47;5.53;;;3.25;;
16770;SDS011;8503;52.472;13.344;2024-01-11T01:55:32;8.82;;;4.32;;
16770;SDS011;8503;52.472;13.344;2024-01-11T01:56:14;9.52;;;4.25;;
16770;SDS011;8503;52.472;13.344;2024-01-11T01:56:57;4.38;;;2.38;;
16770;SDS011;8503;52.472;13.344;2024-01-11T01:57:41;8.48;;;3.70;;
16770;SDS011;8503;52.472;13.344;2024-01-11T01:58:24;6.95;;;3.05;;
16770;SDS011;8503;52.472;13.344;2024-01-11T01:59:07;14.70;;;4.03;;
16770;SDS011;8503;52.472;13.344;2024-01-11T01:59:52;4.88;;;2.47;;
16770;SDS011;8503;52.472;13.344;2024-01-11T02:00:36;5.80;;;3.38;;
16770;SDS011;8503;52.472;13.344;2024-01-11T02:01:19;5.13;;;3.30;;
16770;SDS011;8503;52.472;13.344;2024-01-11T02:02:04;8.57;;;3.72;;
16770;SDS011;8503;52.472;13.344;2024-01-11T02:02:49;7.93;;;4.45;;
16770;SDS011;8503;52.472;13.344;2024-01-11T02:03:33;8.10;;;4.60;;
16770;SDS011;8503;52.472;13.344;2024-01-11T02:04:20;5.28;;;2.95;;
16770;SDS011;8503;52.472;13.344;2024-01-11T02:05:05;6.38;;;3.22;;
16770;SDS011;8503;52.472;13.344;2024-01-11T02:05:49;5.80;;;3.25;;
16770;SDS011;8503;52.472;13.344;2024-01-11T02:06:32;5.18;;;3.05;;
16770;SDS011;8503;52.472;13.344;2024-01-11T02:07:16;6.40;;;3.60;;
16770;SDS011;8503;52.472;13.344;2024-01-11T02:08:00;6.53;;;2.85;;
16770;SDS011;8503;52.472;13.344;2024-01-11T02:08:43;7.50;;;3.60;;
16770;SDS011;8503;52.472;13.344;2024-01-11T02:09:26;6.82;;;3.90;;
16770;SDS011;8503;52.472;13.344;2024-01-11T02:10:11;6.95;;;2.90;;
16770;SDS011;8503;52.472;13.344;2024-01-11T02:10:54;5.25;;;3.20;;
16770;SDS011;8503;52.472;13.344;2024-01-11T02:11:37;6.10;;;3.38;;
16770;SDS011;8503;52.472;13.344;2024-01-11T02:12:20;8.40;;;3.58;;
16770;SDS011;8503;52.472;13.344;2024-01-11T02:13:03;5.88;;;3.15;;
16770;SDS011;8503;52.472;13.344;2024-01-11T02:13:50;5.15;;;2.95;;
16770;SDS011;8503;52.472;13.344;2024-01-11T02:14:34;5.80;;;2.97;;
16770;SDS011;8503;52.472;13.344;2024-01-11T02:15:16;8.15;;;3.33;;
16770;SDS011;8503;52.472;13.344;2024-01-11T02:15:59;7.03;;;3.38;;
16770;SDS011;8503;52.472;13.344;2024-01-11T02:16:43;6.78;;;3.08;;
16770;SDS011;8503;52.472;13.344;2024-01-11T02:17:25;11.35;;;3.63;;
16770;SDS011;8503;52.472;13.344;2024-01-11T02:18:08;8.60;;;3.30;;
16770;SDS011;8503;52.472;13.344;2024-01-11T02:18:52;5.72;;;3.30;;
16770;SDS011;8503;52.472;13.344;2024-01-11T02:19:36;4.22;;;2.47;;
16770;SDS011;8503;52.472;13.344;2024-01-11T02:20:19;6.03;;;2.72;;
16770;SDS011;8503;52.472;13.344;2024-01-11T02:21:02;4.68;;;2.42;;
16770;SDS011;8503;52.472;13.344;2024-01-11T02:21:50;6.50;;;2.45;;
16770;SDS011;8503;52.472;13.344;2024-01-11T02:22:35;6.05;;;2.28;;
16770;SDS011;8503;52.472;13.344;2024-01-11T02:23:21;4.75;;;2.40;;
16770;SDS011;8503;52.472;13.344;2024-01-11T02:24:07;3.97;;;2.33;;
16770;SDS011;8503;52.472;13.344;2024-01-11T02:24:50;4.60;;;2.95;;
16770;SDS011;8503;52.472;13.344;2024-01-11T02:25:34;5.22;;;2.42;;
16770;SDS011;8503;52.472;13.344;2024-01-11T02:26:17;3.67;;;2.17;;
16770;SDS011;8503;52.472;13.344;2024-01-11T02:26:59;8.43;;;2.83;;
16770;SDS011;8503;52.472;13.344;2024-01-11T02:27:46;6.75;;;2.03;;
16770;SDS011;8503;52.472;13.344;2024-01-11T02:28:29;4.95;;;2.92;;
16770;SDS011;8503;52.472;13.344;2024-01-11T02:29:12;4.72;;;2.45;;
16770;SDS011;8503;52.472;13.344;2024-01-11T02:29:55;4.00;;;2.40;;
16770;SDS011;8503;52.472;13.344;2024-01-11T02:30:38;4.05;;;3.00;;
16770;SDS011;8503;52.472;13.344;2024-01-11T02:31:20;5.63;;;2.35;;
16770;SDS011;8503;52.472;13.344;2024-01-11T02:32:04;6.05;;;2.35;;
16770;SDS011;8503;52.472;13.344;2024-01-11T02:32:48;6.70;;;3.05;;
16770;SDS011;8503;52.472;13.344;2024-01-11T02:33:31;5.68;;;3.42;;
16770;SDS011;8503;52.472;13.344;2024-01-11T02:34:14;8.23;;;3.33;;
16770;SDS011;8503;52.472;13.344;2024-01-11T02:34:57;7.18;;;2.70;;
16770;SDS011;8503;52.472;13.344;2024-01-11T02:35:42;7.30;;;2.70;;
16770;SDS011;8503;52.472;13.344;2024-01-11T02:36:28;4.68;;;3.00;;
16770;SDS011;8503;52.472;13.344;2024-01-11T02:37:12;4.60;;;3.50;;
16770;SDS011;8503;52.472;13.344;2024-01-11T02:37:54;4.10;;;2.03;;
16770;SDS011;8503;52.472;13.344;2024-01-11T02:38:37;7.35;;;3.35;;
16770;SDS011;8503;52.472;13.344;2024-01-11T02:39:23;4.80;;;2.17;;
16770;SDS011;8503;52.472;13.344;2024-01-11T02:40:06;3.95;;;1.90;;
16770;SDS011;8503;52.472;13.344;2024-01-11T02:40:50;2.72;;;1.92;;
16770;SDS011;8503;52.472;13.344;2024-01-11T02:41:33;4.90;;;2.70;;
16770;SDS011;8503;52.472;13.344;2024-01-11T02:42:16;5.15;;;2.72;;
16770;SDS011;8503;52.472;13.344;2024-01-11T02:43:06;4.45;;;2.13;;
16770;SDS011;8503;52.472;13.344;2024-01-11T02:43:50;4.93;;;2.45;;
16770;SDS011;8503;52.472;13.344;2024-01-11T02:44:34;2.55;;;1.42;;
16770;SDS011;8503;52.472;13.344;2024-01-11T02:45:18;4.15;;;1.98;;
16770;SDS011;8503;52.472;13.344;2024-01-11T02:46:02;5.78;;;2.63;;
16770;SDS011;8503;52.472;13.344;2024-01-11T02:46:44;6.22;;;3.33;;
16770;SDS011;8503;52.472;13.344;2024-01-11T02:47:27;4.10;;;2.17;;
16770;SDS011;8503;52.472;13.344;2024-01-11T02:48:10;4.72;;;2.33;;
16770;SDS011;8503;52.472;13.344;2024-01-11T02:48:53;4.10;;;2.03;;
16770;SDS011;8503;52.472;13.344;2024-01-11T02:49:36;3.05;;;2.22;;
16770;SDS011;8503;52.472;13.344;2024-01-11T02:50:19;4.32;;;2.05;;
16770;SDS011;8503;52.472;13.344;2024-01-11T02:51:02;4.03;;;2.25;;
16770;SDS011;8503;52.472;13.344;2024-01-11T02:51:44;2.85;;;1.75;;
16770;SDS011;8503;52.472;13.344;2024-01-11T02:52:28;4.00;;;2.08;;
16770;SDS011;8503;52.472;13.344;2024-01-11T02:53:11;5.07;;;2.20;;
16770;SDS011;8503;52.472;13.344;2024-01-11T02:53:53;4.43;;;2.40;;
16770;SDS011;8503;52.472;13.344;2024-01-11T02:54:38;5.95;;;2.05;;
16770;SDS011;8503;52.472;13.344;2024-01-11T02:55:21;5.45;;;2.50;;
16770;SDS011;8503;52.472;13.344;2024-01-11T02:56:03;4.72;;;2.45;;
16770;SDS011;8503;52.472;13.344;2024-01-11T02:56:47;7.90;;;2.53;;
16770;SDS011;8503;52.472;13.344;2024-01-11T02:57:30;4.82;;;2.42;;
16770;SDS011;8503;52.472;13.344;2024-01-11T02:58:12;5.45;;;1.90;;
16770;SDS011;8503;52.472;13.344;2024-01-11T02:58:55;5.10;;;1.92;;
16770;SDS011;8503;52.472;13.344;2024-01-11T02:59:39;6.40;;;2.33;;
16770;SDS011;8503;52.472;13.344;2024-01-11T03:00:22;6.22;;;3.30;;
16770;SDS011;8503;52.472;13.344;2024-01-11T03:01:05;4.70;;;2.25;;
16770;SDS011;8503;52.472;13.344;2024-01-11T03:01:49;5.40;;;2.38;;
16770;SDS011;8503;52.472;13.344;2024-01-11T03:02:32;4.45;;;1.95;;
16770;SDS011;8503;52.472;13.344;2024-01-11T03:03:14;3.75;;;2.08;;
16770;SDS011;8503;52.472;13.344;2024-01-11T03:03:58;5.75;;;2.38;;
16770;SDS011;8503;52.472;13.344;2024-01-11T03:04:41;4.95;;;2.30;;
16770;SDS011;8503;52.472;13.344;2024-01-11T03:05:23;5.75;;;2.15;;
16770;SDS011;8503;52.472;13.344;2024-01-11T03:06:06;5.13;;;2.53;;
16770;SDS011;8503;52.472;13.344;2024-01-11T03:06:50;3.60;;;2.00;;
16770;SDS011;8503;52.472;13.344;2024-01-11T03:07:32;5.80;;;2.58;;
16770;SDS011;8503;52.472;13.344;2024-01-11T03:08:15;5.10;;;2.58;;
16770;SDS011;8503;52.472;13.344;2024-01-11T03:08:58;5.13;;;2.30;;
16770;SDS011;8503;52.472;13.344;2024-01-11T03:09:42;4.80;;;2.05;;
16770;SDS011;8503;52.472;13.344;2024-01-11T03:10:25;6.25;;;1.98;;
16770;SDS011;8503;52.472;13.344;2024-01-11T03:11:09;5.10;;;2.33;;
16770;SDS011;8503;52.472;13.344;2024-01-11T03:11:52;6.07;;;3.00;;
16770;SDS011;8503;52.472;13.344;2024-01-11T03:12:34;6.78;;;2.85;;
16770;SDS011;8503;52.472;13.344;2024-01-11T03:13:18;5.13;;;2.47;;
16770;SDS011;8503;52.472;13.344;2024-01-11T03:14:00;6.05;;;2.67;;
16770;SDS011;8503;52.472;13.344;2024-01-11T03:14:44;7.13;;;2.85;;
16770;SDS011;8503;52.472;13.344;2024-01-11T03:15:28;4.72;;;2.60;;
16770;SDS011;8503;52.472;13.344;2024-01-11T03:16:11;6.32;;;2.60;;
16770;SDS011;8503;52.472;13.344;2024-01-11T03:16:54;8.95;;;2.22;;
16770;SDS011;8503;52.472;13.344;2024-01-11T03:17:37;7.60;;;2.92;;
16770;SDS011;8503;52.472;13.344;2024-01-11T03:18:20;10.30;;;3.78;;
16770;SDS011;8503;52.472;13.344;2024-01-11T03:19:03;4.65;;;3.13;;
16770;SDS011;8503;52.472;13.344;2024-01-11T03:19:46;9.30;;;3.30;;
16770;SDS011;8503;52.472;13.344;2024-01-11T03:20:29;6.78;;;3.28;;
16770;SDS011;8503;52.472;13.344;2024-01-11T03:21:12;7.93;;;3.63;;
16770;SDS011;8503;52.472;13.344;2024-01-11T03:21:55;7.30;;;3.00;;
16770;SDS011;8503;52.472;13.344;2024-01-11T03:22:44;10.05;;;4.47;;
16770;SDS011;8503;52.472;13.344;2024-01-11T03:23:27;8.40;;;3.60;;
16770;SDS011;8503;52.472;13.344;2024-01-11T03:24:10;8.07;;;3.70;;
16770;SDS011;8503;52.472;13.344;2024-01-11T03:24:54;7.22;;;3.00;;
16770;SDS011;8503;52.472;13.344;2024-01-11T03:25:37;6.43;;;3.85;;
16770;SDS011;8503;52.472;13.344;2024-01-11T03:26:20;10.55;;;3.20;;
16770;SDS011;8503;52.472;13.344;2024-01-11T03:27:03;4.85;;;2.63;;
16770;SDS011;8503;52.472;13.344;2024-01-11T03:27:47;6.00;;;2.88;;
16770;SDS011;8503;52.472;13.344;2024-01-11T03:28:30;6.22;;;2.83;;
16770;SDS011;8503;52.472;13.344;2024-01-11T03:29:13;8.90;;;3.83;;
16770;SDS011;8503;52.472;13.344;2024-01-11T03:29:55;5.32;;;2.90;;
16770;SDS011;8503;52.472;13.344;2024-01-11T03:30:39;5.70;;;3.13;;
16770;SDS011;8503;52.472;13.344;2024-01-11T03:31:21;5.90;;;3.13;;
16770;SDS011;8503;52.472;13.344;2024-01-11T03:32:04;5.10;;;2.85;;
16770;SDS011;8503;52.472;13.344;2024-01-11T03:32:48;6.05;;;2.20;;
16770;SDS011;8503;52.472;13.344;2024-01-11T03:33:31;6.38;;;3.15;;
16770;SDS011;8503;52.472;13.344;2024-01-11T03:34:14;9.38;;;3.80;;
16770;SDS011;8503;52.472;13.344;2024-01-11T03:34:58;6.65;;;3.20;;
16770;SDS011;8503;52.472;13.344;2024-01-11T03:35:41;4.90;;;2.42;;
16770;SDS011;8503;52.472;13.344;2024-01-11T03:36:27;8.85;;;3.28;;
16770;SDS011;8503;52.472;13.344;2024-01-11T03:37:10;4.10;;;2.13;;
16770;SDS011;8503;52.472;13.344;2024-01-11T03:37:52;4.35;;;2.65;;
16770;SDS011;8503;52.472;13.344;2024-01-11T03:38:35;6.70;;;3.05;;
16770;SDS011;8503;52.472;13.344;2024-01-11T03:39:18;6.70;;;2.90;;
16770;SDS011;8503;52.472;13.344;2024-01-11T03:40:03;4.65;;;2.45;;
16770;SDS011;8503;52.472;13.344;2024-01-11T03:40:46;6.88;;;3.05;;
16770;SDS011;8503;52.472;13.344;2024-01-11T03:41:30;7.28;;;3.67;;
16770;SDS011;8503;52.472;13.344;2024-01-11T03:42:12;5.32;;;2.47;;
16770;SDS011;8503;52.472;13.344;2024-01-11T03:42:55;7.88;;;2.85;;
16770;SDS011;8503;52.472;13.344;2024-01-11T03:43:38;8.20;;;3.35;;
16770;SDS011;8503;52.472;13.344;2024-01-11T03:44:21;6.78;;;3.78;;
16770;SDS011;8503;52.472;13.344;2024-01-11T03:45:04;5.43;;;2.72;;
16770;SDS011;8503;52.472;13.344;2024-01-11T03:45:48;6.22;;;3.28;;
16770;SDS011;8503;52.472;13.344;2024-01-11T03:46:31;4.88;;;2.22;;
16770;SDS011;8503;52.472;13.344;2024-01-11T03:47:13;5.30;;;2.85;;
16770;SDS011;8503;52.472;13.344;2024-01-11T03:47:57;6.97;;;2.70;;
16770;SDS011;8503;52.472;13.344;2024-01-11T03:48:39;6.10;;;3.05;;
16770;SDS011;8503;52.472;13.344;2024-01-11T03:49:22;8.88;;;3.50;;
16770;SDS011;8503;52.472;13.344;2024-01-11T03:50:06;4.88;;;2.30;;
16770;SDS011;8503;52.472;13.344;2024-01-11T03:50:49;4.40;;;2.20;;
16770;SDS011;8503;52.472;13.344;2024-01-11T03:51:31;4.72;;;3.45;;
16770;SDS011;8503;52.472;13.344;2024-01-11T03:52:15;9.05;;;3.15;;
16770;SDS011;8503;52.472;13.344;2024-01-11T03:52:57;5.28;;;2.55;;
16770;SDS011;8503;52.472;13.344;2024-01-11T03:53:40;6.22;;;2.80;;
16770;SDS011;8503;52.472;13.344;2024-01-11T03:54:24;8.80;;;3.15;;
16770;SDS011;8503;52.472;13.344;2024-01-11T03:55:08;6.72;;;3.22;;
16770;SDS011;8503;52.472;13.344;2024-01-11T03:55:50;5.05;;;2.20;;
16770;SDS011;8503;52.472;13.344;2024-01-11T03:56:37;5.80;;;3.35;;
16770;SDS011;8503;52.472;13.344;2024-01-11T03:57:20;4.93;;;2.85;;
16770;SDS011;8503;52.472;13.344;2024-01-11T03:58:03;7.15;;;3.28;;
16770;SDS011;8503;52.472;13.344;2024-01-11T03:58:46;6.70;;;3.03;;
16770;SDS011;8503;52.472;13.344;2024-01-11T03:59:29;3.72;;;2.95;;
16770;SDS011;8503;52.472;13.344;2024-01-11T04:00:12;10.27;;;3.35;;
16770;SDS011;8503;52.472;13.344;2024-01-11T04:00:56;6.75;;;3.65;;
16770;SDS011;8503;52.472;13.344;2024-01-11T04:01:40;5.25;;;3.30;;
16770;SDS011;8503;52.472;13.344;2024-01-11T04:02:22;5.65;;;2.75;;
16770;SDS011;8503;52.472;13.344;2024-01-11T04:03:06;4.85;;;2.25;;
16770;SDS011;8503;52.472;13.344;2024-01-11T04:03:48;5.13;;;2.42;;
16770;SDS011;8503;52.472;13.344;2024-01-11T04:04:32;6.13;;;2.60;;
16770;SDS011;8503;52.472;13.344;2024-01-11T04:05:15;5.05;;;2.83;;
16770;SDS011;8503;52.472;13.344;2024-01-11T04:05:58;4.07;;;2.15;;
16770;SDS011;8503;52.472;13.344;2024-01-11T04:06:42;9.23;;;3.35;;
16770;SDS011;8503;52.472;13.344;2024-01-11T04:07:26;7.13;;;3.17;;
16770;SDS011;8503;52.472;13.344;2024-01-11T04:08:08;5.68;;;2.72;;
16770;SDS011;8503;52.472;13.344;2024-01-11T04:08:51;7.05;;;3.20;;
16770;SDS011;8503;52.472;13.344;2024-01-11T04:09:36;6.63;;;2.45;;
16770;SDS011;8503;52.472;13.344;2024-01-11T04:10:20;8.18;;;3.58;;
16770;SDS011;8503;52.472;13.344;2024-01-11T04:11:03;5.60;;;2.72;;
16770;SDS011;8503;52.472;13.344;2024-01-11T04:11:47;6.90;;;3.03;;
16770;SDS011;8503;52.472;13.344;2024-01-11T04:12:30;7.10;;;2.90;;
16770;SDS011;8503;52.472;13.344;2024-01-11T04:13:12;6.15;;;2.88;;
16770;SDS011;8503;52.472;13.344;2024-01-11T04:13:56;4.05;;;2.35;;
16770;SDS011;8503;52.472;13.344;2024-01-11T04:14:38;5.97;;;2.90;;
16770;SDS011;8503;52.472;13.344;2024-01-11T04:15:21;5.30;;;2.25;;
16770;SDS011;8503;52.472;13.344;2024-01-11T04:16:05;6.50;;;3.00;;
16770;SDS011;8503;52.472;13.344;2024-01-11T04:16:48;7.10;;;3.03;;
16770;SDS011;8503;52.472;13.344;2024-01-11T04:17:31;6.28;;;3.00;;
16770;SDS011;8503;52.472;13.344;2024-01-11T04:18:14;5.30;;;2.58;;
16770;SDS011;8503;52.472;13.344;2024-01-11T04:18:57;5.68;;;2.85;;
16770;SDS011;8503;52.472;13.344;2024-01-11T04:19:40;8.98;;;3.10;;
16770;SDS011;8503;52.472;13.344;2024-01-11T04:20:23;4.43;;;3.05;;